In Rescue
 
Open Full Screen Window  High Contrast Mode
Wind Gusting 00 knots
08
November 28, 2020 12:37 AM EST
Weather Information
Wind Direction
  250 °
Wind Speed
  08 kt (9 mph)
Wind Gust
  00 kt (0 mph)
Altimeter
29.94 in
Visibility
10 SM
Temperature
-02° C
28° F
Dewpoint
-06° C
21° F
Humidity
74%
1hr Rain Fall
00.00 in.
24hr Rain Fall
00.00 in.
Sky Condition
Scattered @ 7,000 ft
VFR

METAR KSAW 280537Z AUTO 25008KT 10SM SCT070 M02/M06 A2994 RMK AO2 T10251065

FAA Disclaimer: The data displayed is for advisory purposes only and is not to be used for flight planning or operations.